sensor_id;sensor_type;location;lat;lon;timestamp;P1;durP1;ratioP1;P2;durP2;ratioP2
56455;SDS011;42354;53.218;6.564;2023-11-19T00:02:15;59.30;;;20.75;;
56455;SDS011;42354;53.218;6.564;2023-11-19T00:04:41;75.82;;;22.63;;
56455;SDS011;42354;53.218;6.564;2023-11-19T00:07:06;66.88;;;21.35;;
56455;SDS011;42354;53.218;6.564;2023-11-19T00:09:33;64.75;;;20.55;;
56455;SDS011;42354;53.218;6.564;2023-11-19T00:11:59;58.20;;;21.13;;
56455;SDS011;42354;53.218;6.564;2023-11-19T00:14:25;59.05;;;19.83;;
56455;SDS011;42354;53.218;6.564;2023-11-19T00:16:51;58.67;;;18.67;;
56455;SDS011;42354;53.218;6.564;2023-11-19T00:19:17;57.97;;;18.73;;
56455;SDS011;42354;53.218;6.564;2023-11-19T00:21:42;54.78;;;17.27;;
56455;SDS011;42354;53.218;6.564;2023-11-19T00:24:08;51.03;;;17.17;;
56455;SDS011;42354;53.218;6.564;2023-11-19T00:26:33;51.10;;;15.95;;
56455;SDS011;42354;53.218;6.564;2023-11-19T00:28:59;48.85;;;16.10;;
56455;SDS011;42354;53.218;6.564;2023-11-19T00:31:24;52.70;;;15.77;;
56455;SDS011;42354;53.218;6.564;2023-11-19T00:33:53;50.58;;;14.32;;
56455;SDS011;42354;53.218;6.564;2023-11-19T00:36:18;51.55;;;14.57;;
56455;SDS011;42354;53.218;6.564;2023-11-19T00:38:44;37.78;;;13.23;;
56455;SDS011;42354;53.218;6.564;2023-11-19T00:41:09;48.17;;;11.85;;
56455;SDS011;42354;53.218;6.564;2023-11-19T00:43:35;43.53;;;11.05;;
56455;SDS011;42354;53.218;6.564;2023-11-19T00:46:01;45.72;;;11.85;;
56455;SDS011;42354;53.218;6.564;2023-11-19T00:48:27;42.03;;;10.90;;
56455;SDS011;42354;53.218;6.564;2023-11-19T00:50:53;36.55;;;9.90;;
56455;SDS011;42354;53.218;6.564;2023-11-19T00:53:18;49.10;;;9.77;;
56455;SDS011;42354;53.218;6.564;2023-11-19T00:55:44;43.53;;;9.43;;
56455;SDS011;42354;53.218;6.564;2023-11-19T00:58:12;39.67;;;9.50;;
56455;SDS011;42354;53.218;6.564;2023-11-19T01:00:37;39.05;;;8.15;;
56455;SDS011;42354;53.218;6.564;2023-11-19T01:03:03;43.17;;;9.18;;
56455;SDS011;42354;53.218;6.564;2023-11-19T01:05:28;49.17;;;9.57;;
56455;SDS011;42354;53.218;6.564;2023-11-19T01:07:53;45.63;;;7.78;;
56455;SDS011;42354;53.218;6.564;2023-11-19T01:10:19;40.38;;;8.00;;
56455;SDS011;42354;53.218;6.564;2023-11-19T01:12:45;37.75;;;6.70;;
56455;SDS011;42354;53.218;6.564;2023-11-19T01:15:11;46.88;;;9.27;;
56455;SDS011;42354;53.218;6.564;2023-11-19T01:17:37;38.65;;;6.60;;
56455;SDS011;42354;53.218;6.564;2023-11-19T01:20:03;40.88;;;6.88;;
56455;SDS011;42354;53.218;6.564;2023-11-19T01:22:31;45.72;;;6.97;;
56455;SDS011;42354;53.218;6.564;2023-11-19T01:24:57;42.45;;;6.47;;
56455;SDS011;42354;53.218;6.564;2023-11-19T01:27:23;30.95;;;6.82;;
56455;SDS011;42354;53.218;6.564;2023-11-19T01:29:51;34.88;;;6.35;;
56455;SDS011;42354;53.218;6.564;2023-11-19T01:32:17;47.72;;;6.35;;
56455;SDS011;42354;53.218;6.564;2023-11-19T01:34:45;40.95;;;7.13;;
56455;SDS011;42354;53.218;6.564;2023-11-19T01:37:11;40.97;;;6.38;;
56455;SDS011;42354;53.218;6.564;2023-11-19T01:39:37;41.17;;;6.05;;
56455;SDS011;42354;53.218;6.564;2023-11-19T01:42:03;43.85;;;6.63;;
56455;SDS011;42354;53.218;6.564;2023-11-19T01:44:28;45.83;;;7.22;;
56455;SDS011;42354;53.218;6.564;2023-11-19T01:46:54;46.28;;;6.47;;
56455;SDS011;42354;53.218;6.564;2023-11-19T01:49:19;45.90;;;8.07;;
56455;SDS011;42354;53.218;6.564;2023-11-19T01:51:45;44.63;;;6.50;;
56455;SDS011;42354;53.218;6.564;2023-11-19T01:54:12;47.72;;;6.28;;
56455;SDS011;42354;53.218;6.564;2023-11-19T01:56:40;41.03;;;7.55;;
56455;SDS011;42354;53.218;6.564;2023-11-19T01:59:07;44.17;;;6.30;;
56455;SDS011;42354;53.218;6.564;2023-11-19T02:01:34;43.33;;;6.53;;
56455;SDS011;42354;53.218;6.564;2023-11-19T02:04:04;50.15;;;7.05;;
56455;SDS011;42354;53.218;6.564;2023-11-19T02:06:31;43.72;;;6.60;;
56455;SDS011;42354;53.218;6.564;2023-11-19T02:08:59;45.63;;;6.40;;
56455;SDS011;42354;53.218;6.564;2023-11-19T02:11:25;41.97;;;6.85;;
56455;SDS011;42354;53.218;6.564;2023-11-19T02:13:54;45.53;;;5.78;;
56455;SDS011;42354;53.218;6.564;2023-11-19T02:16:21;43.72;;;6.32;;
56455;SDS011;42354;53.218;6.564;2023-11-19T02:18:46;42.83;;;6.38;;
56455;SDS011;42354;53.218;6.564;2023-11-19T02:21:12;40.15;;;6.25;;
56455;SDS011;42354;53.218;6.564;2023-11-19T02:23:40;43.78;;;5.57;;
56455;SDS011;42354;53.218;6.564;2023-11-19T02:26:17;44.30;;;6.53;;
56455;SDS011;42354;53.218;6.564;2023-11-19T02:28:49;48.92;;;6.50;;
56455;SDS011;42354;53.218;6.564;2023-11-19T02:31:15;38.50;;;7.25;;
56455;SDS011;42354;53.218;6.564;2023-11-19T02:33:43;51.80;;;7.03;;
56455;SDS011;42354;53.218;6.564;2023-11-19T02:36:09;53.83;;;8.25;;
56455;SDS011;42354;53.218;6.564;2023-11-19T02:38:35;41.40;;;6.07;;
56455;SDS011;42354;53.218;6.564;2023-11-19T02:41:03;54.50;;;7.55;;
56455;SDS011;42354;53.218;6.564;2023-11-19T02:43:32;43.03;;;7.90;;
56455;SDS011;42354;53.218;6.564;2023-11-19T02:46:05;46.38;;;6.80;;
56455;SDS011;42354;53.218;6.564;2023-11-19T02:48:34;50.17;;;6.75;;
56455;SDS011;42354;53.218;6.564;2023-11-19T02:51:03;47.22;;;6.97;;
56455;SDS011;42354;53.218;6.564;2023-11-19T02:53:29;45.55;;;6.07;;
56455;SDS011;42354;53.218;6.564;2023-11-19T02:55:55;46.53;;;6.70;;
56455;SDS011;42354;53.218;6.564;2023-11-19T02:58:26;57.25;;;8.25;;
56455;SDS011;42354;53.218;6.564;2023-11-19T03:00:53;42.15;;;6.78;;
56455;SDS011;42354;53.218;6.564;2023-11-19T03:03:25;47.97;;;7.97;;
56455;SDS011;42354;53.218;6.564;2023-11-19T03:06:03;63.88;;;6.85;;
56455;SDS011;42354;53.218;6.564;2023-11-19T03:08:35;47.72;;;6.88;;
56455;SDS011;42354;53.218;6.564;2023-11-19T03:11:00;41.22;;;5.68;;
56455;SDS011;42354;53.218;6.564;2023-11-19T03:13:26;41.33;;;6.47;;
56455;SDS011;42354;53.218;6.564;2023-11-19T03:15:52;45.25;;;7.20;;
56455;SDS011;42354;53.218;6.564;2023-11-19T03:18:18;46.67;;;7.07;;
56455;SDS011;42354;53.218;6.564;2023-11-19T03:20:44;34.95;;;6.15;;
56455;SDS011;42354;53.218;6.564;2023-11-19T03:23:11;43.47;;;6.18;;
56455;SDS011;42354;53.218;6.564;2023-11-19T03:25:37;43.95;;;5.80;;
56455;SDS011;42354;53.218;6.564;2023-11-19T03:28:03;46.15;;;8.43;;
56455;SDS011;42354;53.218;6.564;2023-11-19T03:30:29;39.15;;;6.82;;
56455;SDS011;42354;53.218;6.564;2023-11-19T03:32:55;47.80;;;6.35;;
56455;SDS011;42354;53.218;6.564;2023-11-19T03:35:25;41.38;;;6.50;;
56455;SDS011;42354;53.218;6.564;2023-11-19T03:37:51;46.65;;;6.57;;
56455;SDS011;42354;53.218;6.564;2023-11-19T03:40:17;41.92;;;5.90;;
56455;SDS011;42354;53.218;6.564;2023-11-19T03:42:44;42.15;;;6.80;;
56455;SDS011;42354;53.218;6.564;2023-11-19T03:45:10;40.42;;;6.35;;
56455;SDS011;42354;53.218;6.564;2023-11-19T03:47:35;40.63;;;6.03;;
56455;SDS011;42354;53.218;6.564;2023-11-19T03:50:01;43.00;;;6.40;;
56455;SDS011;42354;53.218;6.564;2023-11-19T03:52:27;43.85;;;6.35;;
56455;SDS011;42354;53.218;6.564;2023-11-19T03:54:53;44.60;;;6.63;;
56455;SDS011;42354;53.218;6.564;2023-11-19T03:57:20;49.40;;;6.95;;
56455;SDS011;42354;53.218;6.564;2023-11-19T03:59:45;45.53;;;6.93;;
56455;SDS011;42354;53.218;6.564;2023-11-19T04:02:11;51.47;;;7.10;;
56455;SDS011;42354;53.218;6.564;2023-11-19T04:04:36;48.85;;;6.60;;
56455;SDS011;42354;53.218;6.564;2023-11-19T04:07:03;46.20;;;7.18;;
56455;SDS011;42354;53.218;6.564;2023-11-19T04:09:29;40.80;;;6.18;;
56455;SDS011;42354;53.218;6.564;2023-11-19T04:11:55;41.30;;;7.65;;
56455;SDS011;42354;53.218;6.564;2023-11-19T04:14:21;39.03;;;6.18;;
56455;SDS011;42354;53.218;6.564;2023-11-19T04:16:46;40.85;;;5.97;;
56455;SDS011;42354;53.218;6.564;2023-11-19T04:19:12;50.88;;;7.32;;
56455;SDS011;42354;53.218;6.564;2023-11-19T04:21:41;50.42;;;7.30;;
56455;SDS011;42354;53.218;6.564;2023-11-19T04:24:09;48.25;;;6.10;;
56455;SDS011;42354;53.218;6.564;2023-11-19T04:26:43;40.70;;;6.63;;
56455;SDS011;42354;53.218;6.564;2023-11-19T04:29:13;44.30;;;6.43;;
56455;SDS011;42354;53.218;6.564;2023-11-19T04:31:40;41.20;;;6.75;;
56455;SDS011;42354;53.218;6.564;2023-11-19T04:34:06;48.38;;;6.78;;
56455;SDS011;42354;53.218;6.564;2023-11-19T04:36:32;50.83;;;7.20;;
56455;SDS011;42354;53.218;6.564;2023-11-19T04:38:58;51.13;;;8.68;;
56455;SDS011;42354;53.218;6.564;2023-11-19T04:41:25;54.00;;;10.30;;
56455;SDS011;42354;53.218;6.564;2023-11-19T04:43:52;45.42;;;8.02;;
56455;SDS011;42354;53.218;6.564;2023-11-19T04:46:18;55.00;;;7.38;;
56455;SDS011;42354;53.218;6.564;2023-11-19T04:48:44;53.50;;;9.15;;
56455;SDS011;42354;53.218;6.564;2023-11-19T04:51:09;52.47;;;7.97;;
56455;SDS011;42354;53.218;6.564;2023-11-19T04:53:36;53.58;;;7.85;;
56455;SDS011;42354;53.218;6.564;2023-11-19T04:56:07;56.75;;;7.20;;
56455;SDS011;42354;53.218;6.564;2023-11-19T04:58:36;51.95;;;7.15;;
56455;SDS011;42354;53.218;6.564;2023-11-19T05:01:02;56.15;;;8.18;;
56455;SDS011;42354;53.218;6.564;2023-11-19T05:03:28;45.58;;;7.13;;
56455;SDS011;42354;53.218;6.564;2023-11-19T05:05:54;48.58;;;7.68;;
56455;SDS011;42354;53.218;6.564;2023-11-19T05:08:19;59.97;;;7.60;;
56455;SDS011;42354;53.218;6.564;2023-11-19T05:10:45;67.28;;;10.90;;
56455;SDS011;42354;53.218;6.564;2023-11-19T05:13:10;55.00;;;9.80;;
56455;SDS011;42354;53.218;6.564;2023-11-19T05:15:35;61.90;;;8.32;;
56455;SDS011;42354;53.218;6.564;2023-11-19T05:18:01;64.40;;;8.13;;
56455;SDS011;42354;53.218;6.564;2023-11-19T05:20:26;58.95;;;9.48;;
56455;SDS011;42354;53.218;6.564;2023-11-19T05:22:52;50.65;;;6.90;;
56455;SDS011;42354;53.218;6.564;2023-11-19T05:25:18;52.75;;;8.18;;
56455;SDS011;42354;53.218;6.564;2023-11-19T05:27:45;54.92;;;10.93;;
56455;SDS011;42354;53.218;6.564;2023-11-19T05:30:10;58.40;;;7.72;;
56455;SDS011;42354;53.218;6.564;2023-11-19T05:32:36;60.40;;;7.78;;
56455;SDS011;42354;53.218;6.564;2023-11-19T05:35:02;53.63;;;8.60;;
56455;SDS011;42354;53.218;6.564;2023-11-19T05:37:28;58.30;;;9.52;;
56455;SDS011;42354;53.218;6.564;2023-11-19T05:39:53;55.83;;;8.27;;
56455;SDS011;42354;53.218;6.564;2023-11-19T05:42:18;64.78;;;8.85;;
56455;SDS011;42354;53.218;6.564;2023-11-19T05:44:44;61.65;;;8.45;;
56455;SDS011;42354;53.218;6.564;2023-11-19T05:47:09;68.88;;;9.48;;
56455;SDS011;42354;53.218;6.564;2023-11-19T05:49:35;53.50;;;8.45;;
56455;SDS011;42354;53.218;6.564;2023-11-19T05:52:00;58.17;;;9.90;;
56455;SDS011;42354;53.218;6.564;2023-11-19T05:54:30;54.70;;;7.78;;
56455;SDS011;42354;53.218;6.564;2023-11-19T05:56:58;52.78;;;8.18;;
56455;SDS011;42354;53.218;6.564;2023-11-19T05:59:24;59.92;;;11.05;;
56455;SDS011;42354;53.218;6.564;2023-11-19T06:01:49;44.95;;;6.72;;
56455;SDS011;42354;53.218;6.564;2023-11-19T06:04:14;60.97;;;9.65;;
56455;SDS011;42354;53.218;6.564;2023-11-19T06:06:41;70.63;;;10.70;;
56455;SDS011;42354;53.218;6.564;2023-11-19T06:09:06;61.20;;;7.75;;
56455;SDS011;42354;53.218;6.564;2023-11-19T06:11:34;51.05;;;8.15;;
56455;SDS011;42354;53.218;6.564;2023-11-19T06:14:01;60.60;;;9.13;;
56455;SDS011;42354;53.218;6.564;2023-11-19T06:16:26;51.50;;;8.45;;
56455;SDS011;42354;53.218;6.564;2023-11-19T06:18:52;54.83;;;7.97;;
56455;SDS011;42354;53.218;6.564;2023-11-19T06:21:18;52.67;;;8.13;;
56455;SDS011;42354;53.218;6.564;2023-11-19T06:23:43;58.78;;;10.00;;
56455;SDS011;42354;53.218;6.564;2023-11-19T06:26:09;53.50;;;9.07;;
56455;SDS011;42354;53.218;6.564;2023-11-19T06:28:37;53.90;;;7.90;;
56455;SDS011;42354;53.218;6.564;2023-11-19T06:31:03;50.83;;;8.30;;
56455;SDS011;42354;53.218;6.564;2023-11-19T06:33:29;56.75;;;6.60;;
56455;SDS011;42354;53.218;6.564;2023-11-19T06:35:55;55.53;;;8.80;;
56455;SDS011;42354;53.218;6.564;2023-11-19T06:38:21;58.28;;;8.13;;
56455;SDS011;42354;53.218;6.564;2023-11-19T06:40:46;41.55;;;6.72;;
56455;SDS011;42354;53.218;6.564;2023-11-19T06:43:11;51.95;;;7.20;;
56455;SDS011;42354;53.218;6.564;2023-11-19T06:45:37;48.13;;;6.68;;
56455;SDS011;42354;53.218;6.564;2023-11-19T06:48:03;70.80;;;8.30;;
56455;SDS011;42354;53.218;6.564;2023-11-19T06:50:29;56.65;;;10.32;;
56455;SDS011;42354;53.218;6.564;2023-11-19T06:52:54;59.42;;;8.15;;
56455;SDS011;42354;53.218;6.564;2023-11-19T06:55:19;56.53;;;8.32;;
56455;SDS011;42354;53.218;6.564;2023-11-19T06:57:45;56.05;;;7.22;;
56455;SDS011;42354;53.218;6.564;2023-11-19T07:00:10;66.05;;;8.82;;
56455;SDS011;42354;53.218;6.564;2023-11-19T07:02:36;59.55;;;7.47;;
56455;SDS011;42354;53.218;6.564;2023-11-19T07:05:02;61.20;;;9.23;;
56455;SDS011;42354;53.218;6.564;2023-11-19T07:07:30;55.17;;;8.20;;
56455;SDS011;42354;53.218;6.564;2023-11-19T07:09:56;56.35;;;9.70;;
56455;SDS011;42354;53.218;6.564;2023-11-19T07:12:22;66.60;;;10.95;;
56455;SDS011;42354;53.218;6.564;2023-11-19T07:14:47;61.70;;;9.23;;
56455;SDS011;42354;53.218;6.564;2023-11-19T07:17:12;58.42;;;9.70;;
56455;SDS011;42354;53.218;6.564;2023-11-19T07:19:38;57.92;;;8.45;;
56455;SDS011;42354;53.218;6.564;2023-11-19T07:22:04;46.17;;;7.80;;
56455;SDS011;42354;53.218;6.564;2023-11-19T07:24:31;54.33;;;8.10;;
56455;SDS011;42354;53.218;6.564;2023-11-19T07:26:56;51.08;;;9.32;;
56455;SDS011;42354;53.218;6.564;2023-11-19T07:29:22;55.40;;;7.15;;
56455;SDS011;42354;53.218;6.564;2023-11-19T07:31:50;47.67;;;7.75;;
56455;SDS011;42354;53.218;6.564;2023-11-19T07:34:16;57.17;;;8.20;;
56455;SDS011;42354;53.218;6.564;2023-11-19T07:36:41;54.40;;;9.15;;
56455;SDS011;42354;53.218;6.564;2023-11-19T07:39:07;51.17;;;9.20;;
56455;SDS011;42354;53.218;6.564;2023-11-19T07:41:33;60.05;;;9.32;;
56455;SDS011;42354;53.218;6.564;2023-11-19T07:43:59;54.22;;;8.77;;
56455;SDS011;42354;53.218;6.564;2023-11-19T07:46:25;59.78;;;9.02;;
56455;SDS011;42354;53.218;6.564;2023-11-19T07:48:50;50.78;;;7.75;;
56455;SDS011;42354;53.218;6.564;2023-11-19T07:51:20;57.63;;;7.95;;
56455;SDS011;42354;53.218;6.564;2023-11-19T07:53:45;52.85;;;6.78;;
56455;SDS011;42354;53.218;6.564;2023-11-19T07:56:11;50.42;;;9.02;;
56455;SDS011;42354;53.218;6.564;2023-11-19T07:58:36;47.40;;;6.38;;
56455;SDS011;42354;53.218;6.564;2023-11-19T08:01:01;49.45;;;7.93;;
56455;SDS011;42354;53.218;6.564;2023-11-19T08:03:27;54.53;;;8.27;;
56455;SDS011;42354;53.218;6.564;2023-11-19T08:05:55;54.00;;;7.13;;
56455;SDS011;42354;53.218;6.564;2023-11-19T08:08:21;50.38;;;9.30;;
56455;SDS011;42354;53.218;6.564;2023-11-19T08:10:46;49.55;;;7.85;;
56455;SDS011;42354;53.218;6.564;2023-11-19T08:13:12;47.28;;;6.07;;
56455;SDS011;42354;53.218;6.564;2023-11-19T08:15:38;58.97;;;8.43;;
56455;SDS011;42354;53.218;6.564;2023-11-19T08:18:03;42.33;;;7.00;;
56455;SDS011;42354;53.218;6.564;2023-11-19T08:20:28;46.17;;;7.82;;
56455;SDS011;42354;53.218;6.564;2023-11-19T08:22:54;57.85;;;7.38;;
56455;SDS011;42354;53.218;6.564;2023-11-19T08:25:19;53.13;;;9.05;;
56455;SDS011;42354;53.218;6.564;2023-11-19T08:27:45;54.30;;;7.72;;
56455;SDS011;42354;53.218;6.564;2023-11-19T08:30:11;56.13;;;8.07;;
56455;SDS011;42354;53.218;6.564;2023-11-19T08:32:37;51.97;;;7.85;;
56455;SDS011;42354;53.218;6.564;2023-11-19T08:35:03;48.78;;;7.72;;
56455;SDS011;42354;53.218;6.564;2023-11-19T08:37:28;51.35;;;7.43;;
56455;SDS011;42354;53.218;6.564;2023-11-19T08:39:54;51.90;;;7.85;;
56455;SDS011;42354;53.218;6.564;2023-11-19T08:42:19;58.22;;;7.82;;
56455;SDS011;42354;53.218;6.564;2023-11-19T08:44:49;42.67;;;7.13;;
56455;SDS011;42354;53.218;6.564;2023-11-19T08:47:15;50.70;;;7.05;;
56455;SDS011;42354;53.218;6.564;2023-11-19T08:49:43;43.95;;;7.50;;
56455;SDS011;42354;53.218;6.564;2023-11-19T08:52:08;48.53;;;8.45;;
56455;SDS011;42354;53.218;6.564;2023-11-19T08:54:35;49.75;;;7.70;;
56455;SDS011;42354;53.218;6.564;2023-11-19T08:57:01;54.05;;;9.00;;
56455;SDS011;42354;53.218;6.564;2023-11-19T08:59:28;45.22;;;6.57;;
56455;SDS011;42354;53.218;6.564;2023-11-19T09:01:54;52.92;;;7.22;;
56455;SDS011;42354;53.218;6.564;2023-11-19T09:04:19;62.92;;;7.47;;
56455;SDS011;42354;53.218;6.564;2023-11-19T09:06:47;54.60;;;7.90;;
56455;SDS011;42354;53.218;6.564;2023-11-19T09:09:12;39.90;;;6.45;;
56455;SDS011;42354;53.218;6.564;2023-11-19T09:11:39;47.45;;;6.95;;
56455;SDS011;42354;53.218;6.564;2023-11-19T09:14:06;51.63;;;6.43;;
56455;SDS011;42354;53.218;6.564;2023-11-19T09:16:31;50.65;;;8.30;;
56455;SDS011;42354;53.218;6.564;2023-11-19T09:18:57;55.00;;;8.63;;
56455;SDS011;42354;53.218;6.564;2023-11-19T09:21:24;42.47;;;6.93;;
56455;SDS011;42354;53.218;6.564;2023-11-19T09:23:50;46.55;;;6.70;;
56455;SDS011;42354;53.218;6.564;2023-11-19T09:26:15;49.25;;;7.68;;
56455;SDS011;42354;53.218;6.564;2023-11-19T09:28:41;53.85;;;7.18;;
56455;SDS011;42354;53.218;6.564;2023-11-19T09:31:13;52.70;;;6.63;;
56455;SDS011;42354;53.218;6.564;2023-11-19T09:33:42;50.95;;;8.05;;
56455;SDS011;42354;53.218;6.564;2023-11-19T09:36:08;50.75;;;7.80;;
56455;SDS011;42354;53.218;6.564;2023-11-19T09:38:33;52.92;;;9.15;;
56455;SDS011;42354;53.218;6.564;2023-11-19T09:41:04;61.67;;;8.48;;
56455;SDS011;42354;53.218;6.564;2023-11-19T09:43:33;54.05;;;7.63;;
56455;SDS011;42354;53.218;6.564;2023-11-19T09:46:05;43.45;;;7.47;;
56455;SDS011;42354;53.218;6.564;2023-11-19T09:48:35;49.15;;;6.55;;
56455;SDS011;42354;53.218;6.564;2023-11-19T09:51:04;55.47;;;7.88;;
56455;SDS011;42354;53.218;6.564;2023-11-19T09:53:32;50.47;;;6.68;;
56455;SDS011;42354;53.218;6.564;2023-11-19T09:56:00;50.75;;;7.65;;
56455;SDS011;42354;53.218;6.564;2023-11-19T09:58:30;52.08;;;8.60;;
56455;SDS011;42354;53.218;6.564;2023-11-19T10:00:58;55.00;;;8.50;;
56455;SDS011;42354;53.218;6.564;2023-11-19T10:03:24;51.85;;;6.40;;
56455;SDS011;42354;53.218;6.564;2023-11-19T10:05:57;44.80;;;6.15;;
56455;SDS011;42354;53.218;6.564;2023-11-19T10:08:23;49.40;;;6.88;;
56455;SDS011;42354;53.218;6.564;2023-11-19T10:10:50;48.47;;;9.50;;
56455;SDS011;42354;53.218;6.564;2023-11-19T10:13:20;45.90;;;6.60;;
56455;SDS011;42354;53.218;6.564;2023-11-19T10:15:51;55.80;;;8.68;;
56455;SDS011;42354;53.218;6.564;2023-11-19T10:18:25;49.70;;;6.93;;
56455;SDS011;42354;53.218;6.564;2023-11-19T10:20:51;54.97;;;6.80;;
56455;SDS011;42354;53.218;6.564;2023-11-19T10:23:18;45.53;;;6.78;;
56455;SDS011;42354;53.218;6.564;2023-11-19T10:25:43;48.80;;;6.90;;
56455;SDS011;42354;53.218;6.564;2023-11-19T10:28:09;47.22;;;7.38;;
56455;SDS011;42354;53.218;6.564;2023-11-19T10:30:34;41.55;;;6.68;;
56455;SDS011;42354;53.218;6.564;2023-11-19T10:33:07;53.33;;;7.35;;
56455;SDS011;42354;53.218;6.564;2023-11-19T10:38:27;45.33;;;5.95;;
56455;SDS011;42354;53.218;6.564;2023-11-19T10:40:53;46.15;;;7.25;;
56455;SDS011;42354;53.218;6.564;2023-11-19T10:43:20;48.20;;;7.80;;
56455;SDS011;42354;53.218;6.564;2023-11-19T10:45:48;48.17;;;6.82;;
56455;SDS011;42354;53.218;6.564;2023-11-19T10:48:13;40.88;;;7.07;;
56455;SDS011;42354;53.218;6.564;2023-11-19T10:50:43;39.25;;;6.45;;
56455;SDS011;42354;53.218;6.564;2023-11-19T10:53:10;43.90;;;9.02;;
56455;SDS011;42354;53.218;6.564;2023-11-19T10:55:40;47.38;;;7.45;;
56455;SDS011;42354;53.218;6.564;2023-11-19T10:58:07;50.40;;;6.32;;
56455;SDS011;42354;53.218;6.564;2023-11-19T11:00:52;40.83;;;6.57;;
56455;SDS011;42354;53.218;6.564;2023-11-19T11:03:22;52.88;;;10.02;;
56455;SDS011;42354;53.218;6.564;2023-11-19T11:05:51;52.72;;;8.52;;
56455;SDS011;42354;53.218;6.564;2023-11-19T11:08:18;48.10;;;6.97;;
56455;SDS011;42354;53.218;6.564;2023-11-19T11:13:16;40.17;;;6.97;;
56455;SDS011;42354;53.218;6.564;2023-11-19T11:15:43;43.25;;;6.72;;
56455;SDS011;42354;53.218;6.564;2023-11-19T11:18:11;49.15;;;7.85;;
56455;SDS011;42354;53.218;6.564;2023-11-19T11:20:38;39.60;;;6.07;;
56455;SDS011;42354;53.218;6.564;2023-11-19T11:28:35;34.30;;;7.05;;
56455;SDS011;42354;53.218;6.564;2023-11-19T11:37:07;39.25;;;7.07;;
56455;SDS011;42354;53.218;6.564;2023-11-19T11:39:55;42.70;;;6.25;;
56455;SDS011;42354;53.218;6.564;2023-11-19T11:58:07;43.65;;;7.13;;
56455;SDS011;42354;53.218;6.564;2023-11-19T12:00:37;46.20;;;7.15;;
56455;SDS011;42354;53.218;6.564;2023-11-19T12:03:07;44.70;;;7.68;;
56455;SDS011;42354;53.218;6.564;2023-11-19T12:05:38;43.25;;;6.53;;
56455;SDS011;42354;53.218;6.564;2023-11-19T12:08:06;46.35;;;6.80;;
56455;SDS011;42354;53.218;6.564;2023-11-19T12:10:48;47.03;;;7.20;;
56455;SDS011;42354;53.218;6.564;2023-11-19T12:13:22;39.75;;;5.95;;
56455;SDS011;42354;53.218;6.564;2023-11-19T12:18:23;38.67;;;5.80;;
56455;SDS011;42354;53.218;6.564;2023-11-19T12:20:55;41.38;;;7.20;;
56455;SDS011;42354;53.218;6.564;2023-11-19T12:23:22;34.10;;;5.85;;
56455;SDS011;42354;53.218;6.564;2023-11-19T12:25:51;39.50;;;5.82;;
56455;SDS011;42354;53.218;6.564;2023-11-19T12:28:17;45.80;;;6.60;;
56455;SDS011;42354;53.218;6.564;2023-11-19T12:30:43;47.55;;;7.55;;
56455;SDS011;42354;53.218;6.564;2023-11-19T12:33:10;35.03;;;6.22;;
56455;SDS011;42354;53.218;6.564;2023-11-19T12:35:39;47.63;;;6.97;;
56455;SDS011;42354;53.218;6.564;2023-11-19T12:38:05;49.13;;;6.05;;
56455;SDS011;42354;53.218;6.564;2023-11-19T12:40:31;57.28;;;8.10;;
56455;SDS011;42354;53.218;6.564;2023-11-19T12:42:56;42.40;;;8.05;;
56455;SDS011;42354;53.218;6.564;2023-11-19T12:45:22;38.58;;;6.80;;
56455;SDS011;42354;53.218;6.564;2023-11-19T12:47:49;44.78;;;6.93;;
56455;SDS011;42354;53.218;6.564;2023-11-19T12:50:16;45.33;;;6.68;;
56455;SDS011;42354;53.218;6.564;2023-11-19T12:52:57;38.78;;;6.95;;
56455;SDS011;42354;53.218;6.564;2023-11-19T12:55:26;40.97;;;7.00;;
56455;SDS011;42354;53.218;6.564;2023-11-19T12:57:55;42.20;;;6.75;;
56455;SDS011;42354;53.218;6.564;2023-11-19T13:00:22;42.00;;;7.20;;
56455;SDS011;42354;53.218;6.564;2023-11-19T13:02:50;36.22;;;5.68;;
56455;SDS011;42354;53.218;6.564;2023-11-19T13:05:23;39.88;;;6.68;;
56455;SDS011;42354;53.218;6.564;2023-11-19T13:07:59;31.33;;;6.18;;
56455;SDS011;42354;53.218;6.564;2023-11-19T13:10:29;42.40;;;6.03;;
56455;SDS011;42354;53.218;6.564;2023-11-19T13:13:00;49.97;;;8.85;;
56455;SDS011;42354;53.218;6.564;2023-11-19T13:15:25;51.97;;;6.30;;
56455;SDS011;42354;53.218;6.564;2023-11-19T13:17:51;35.40;;;5.85;;
56455;SDS011;42354;53.218;6.564;2023-11-19T13:20:17;38.45;;;5.72;;
56455;SDS011;42354;53.218;6.564;2023-11-19T13:25:25;37.10;;;6.60;;
56455;SDS011;42354;53.218;6.564;2023-11-19T13:27:54;39.42;;;6.55;;
56455;SDS011;42354;53.218;6.564;2023-11-19T13:30:21;48.55;;;5.65;;
56455;SDS011;42354;53.218;6.564;2023-11-19T13:32:50;32.25;;;5.20;;
56455;SDS011;42354;53.218;6.564;2023-11-19T13:35:17;42.63;;;5.80;;
56455;SDS011;42354;53.218;6.564;2023-11-19T13:37:42;41.67;;;5.80;;
56455;SDS011;42354;53.218;6.564;2023-11-19T13:40:10;36.97;;;5.93;;
56455;SDS011;42354;53.218;6.564;2023-11-19T13:42:43;39.28;;;7.35;;
56455;SDS011;42354;53.218;6.564;2023-11-19T13:45:10;42.25;;;5.43;;
56455;SDS011;42354;53.218;6.564;2023-11-19T13:47:38;40.15;;;6.65;;
56455;SDS011;42354;53.218;6.564;2023-11-19T13:50:06;32.83;;;5.47;;
56455;SDS011;42354;53.218;6.564;2023-11-19T13:52:39;38.45;;;6.40;;
56455;SDS011;42354;53.218;6.564;2023-11-19T13:55:06;44.67;;;8.00;;
56455;SDS011;42354;53.218;6.564;2023-11-19T13:57:35;45.58;;;6.68;;
56455;SDS011;42354;53.218;6.564;2023-11-19T14:00:08;37.83;;;5.38;;
56455;SDS011;42354;53.218;6.564;2023-11-19T14:02:40;35.47;;;6.28;;
56455;SDS011;42354;53.218;6.564;2023-11-19T14:05:06;41.42;;;5.97;;
56455;SDS011;42354;53.218;6.564;2023-11-19T14:07:32;48.03;;;6.60;;
56455;SDS011;42354;53.218;6.564;2023-11-19T14:09:58;34.65;;;5.45;;
56455;SDS011;42354;53.218;6.564;2023-11-19T14:12:23;34.33;;;6.35;;
56455;SDS011;42354;53.218;6.564;2023-11-19T14:14:49;43.65;;;6.30;;
56455;SDS011;42354;53.218;6.564;2023-11-19T14:17:14;40.15;;;8.18;;
56455;SDS011;42354;53.218;6.564;2023-11-19T14:19:40;38.92;;;6.45;;
56455;SDS011;42354;53.218;6.564;2023-11-19T14:22:09;38.22;;;6.72;;
56455;SDS011;42354;53.218;6.564;2023-11-19T14:24:35;42.40;;;6.00;;
56455;SDS011;42354;53.218;6.564;2023-11-19T14:27:01;38.38;;;6.25;;
56455;SDS011;42354;53.218;6.564;2023-11-19T14:29:29;40.25;;;7.70;;
56455;SDS011;42354;53.218;6.564;2023-11-19T14:31:55;36.97;;;5.55;;
56455;SDS011;42354;53.218;6.564;2023-11-19T14:34:21;51.88;;;7.35;;
56455;SDS011;42354;53.218;6.564;2023-11-19T14:36:47;45.15;;;6.93;;
56455;SDS011;42354;53.218;6.564;2023-11-19T14:39:12;34.92;;;5.68;;
56455;SDS011;42354;53.218;6.564;2023-11-19T14:41:38;46.13;;;6.63;;
56455;SDS011;42354;53.218;6.564;2023-11-19T14:44:04;41.88;;;6.38;;
56455;SDS011;42354;53.218;6.564;2023-11-19T14:46:30;49.13;;;7.60;;
56455;SDS011;42354;53.218;6.564;2023-11-19T14:48:56;41.00;;;7.35;;
56455;SDS011;42354;53.218;6.564;2023-11-19T14:51:21;47.28;;;6.40;;
56455;SDS011;42354;53.218;6.564;2023-11-19T14:53:47;41.50;;;5.65;;
56455;SDS011;42354;53.218;6.564;2023-11-19T14:56:12;31.55;;;5.70;;
56455;SDS011;42354;53.218;6.564;2023-11-19T14:58:38;39.63;;;7.38;;
56455;SDS011;42354;53.218;6.564;2023-11-19T15:01:04;38.95;;;4.68;;
56455;SDS011;42354;53.218;6.564;2023-11-19T15:03:30;45.38;;;6.55;;
56455;SDS011;42354;53.218;6.564;2023-11-19T15:05:55;45.13;;;5.97;;
56455;SDS011;42354;53.218;6.564;2023-11-19T15:08:21;45.58;;;6.10;;
56455;SDS011;42354;53.218;6.564;2023-11-19T15:10:47;32.10;;;5.88;;